Crooked Creek Research Lab Weather observations

Data are for 10 minute period ending at time listed.
 Day   Time    Ave.   Ave.  Ave.  Vector   Max.   Stn.    Total    Solar   Ave.   Snow 
  of    of     Air    Rel.  Wind   Wind    Wind   Baro.  Precip.   Rad.    Soil   Depth
Year   Day     Temp.  Hum.  Speed  Dir.    Gust   Pres.                    Temp.       
2014   (PST)    F      %     mph   deg.    mph     mb.     in.     W/m2     F      in. 
---------------------------------------------------------------------------------------  
 241    0:00   38.3    58    0.9   228      3.7   709.6    0.00       0    999.0    -0.6
 241    0:10   38.3    57    0.7   160      3.0   709.5    0.00       0    999.0    -0.5
 241    0:20   37.8    57    0.9   142      2.9   709.6    0.00       0    999.0    -0.6
 241    0:30   37.9    57    0.1   250      0.8   709.4    0.00       0    999.0    -0.6
 241    0:40   37.8    58    0.0   246      0.9   709.4    0.00       0    999.0    -0.6
 241    0:50   37.9    57    0.8   137      3.4   709.3    0.00       0    999.0    -0.6
 241    1:00   37.8    57    1.7   118      3.6   709.3    0.00       0    999.0    -0.6
 241    1:10   37.7    57    0.9   112      1.8   709.4    0.00       0    999.0    -0.6
 241    1:20   37.5    58    1.7   114      2.8   709.4    0.00       0    999.0    -0.5
 241    1:30   37.4    58    0.3   252      2.2   709.5    0.00       0    999.0    -0.6
 241    1:40   37.3    59    0.1   237      1.7   709.5    0.00       0    999.0    -0.6
 241    1:50   36.8    60    0.3   229      1.8   709.3    0.00       0    999.0    -0.6
 241    2:00   36.5    61    1.0   210      4.4   709.4    0.00       0    999.0    -0.6
 241    2:10   36.7    61    0.9   138      2.8   709.5    0.00       0    999.0    -0.6
 241    2:20   36.4    60    1.0   231      4.7   709.4    0.00       0    999.0    -0.6
 241    2:30   36.1    61    0.0   226      0.1   709.3    0.00       0    999.0    -0.5
 241    2:40   36.1    62    0.3   182      0.9   709.4    0.00       0    999.0    -0.5
 241    2:50   36.5    60    0.2   176      1.3   709.3    0.00       0    999.0    -0.6
 241    3:00   36.2    61    1.2   137      2.4   709.3    0.00       0    999.0    -0.6
 241    3:10   35.9    62    0.7   130      2.6   709.2    0.00       0    999.0    -0.6
 241    3:20   35.9    63    0.3   222      2.5   709.3    0.00       0    999.0    -0.5
 241    3:30   36.3    62    1.2   153      2.7   709.2    0.00       0    999.0    -0.6
 241    3:40   35.9    63    1.1   147      3.1   709.3    0.00       0    999.0    -0.6
 241    3:50   35.7    63    1.3   153      3.1   709.2    0.00       0    999.0    -0.6
 241    4:00   35.9    62    2.9   173      4.8   709.2    0.00       0    999.0    -0.7
 241    4:10   35.6    63    1.6   203      5.3   709.2    0.00       0    999.0    -0.6
 241    4:20   35.3    63    0.8   143      2.3   709.2    0.00       0    999.0    -0.6
 241    4:30   34.7    64    2.1   124      3.8   709.2    0.00       0    999.0    -0.7
 241    4:40   34.6    64    1.9   122      2.9   709.3    0.00       0    999.0    -0.6
 241    4:50   34.7    64    1.5   121      3.7   709.2    0.00       0    999.0    -0.6
 241    5:00   34.8    64    0.6   125      1.9   709.3    0.00       1    999.0    -0.6
 241    5:10   34.7    64    0.2   195      1.7   709.5    0.00       3    999.0    -0.6
 241    5:20   34.9    64    0.5   167      1.9   709.5    0.00       6    999.0    -0.6
 241    5:30   35.2    64    0.6   192      2.0   709.5    0.00       8    999.0    -0.7
 241    5:40   35.3    64    0.7   155      2.2   709.4    0.00      11    999.0    -0.6
 241    5:50   35.8    64    0.8   155      1.7   709.3    0.00      13    999.0    -0.6
 241    6:00   35.8    65    0.0     0      0.0   709.5    0.00      14    999.0    -0.6
 241    6:10   36.4    66    0.4   157      1.7   709.4    0.00      16    999.0    -0.5
 241    6:20   38.4    64    1.6   155      2.0   709.3    0.00      17    999.0    -0.6
 241    6:30   40.1    61    1.0   155      1.8   709.5    0.00      18    999.0    -0.6
 241    6:40   41.9    58    2.9   127      3.5   709.7    0.00      20    999.0    -0.7
 241    6:50   43.5    56    3.4   125      4.0   709.5    0.00     167    999.0    -0.6
 241    7:00   47.2    49    2.9   122      3.9   709.6    0.00     335    999.0    -0.6
 241    7:10   52.2    41    1.2   114      3.5   709.6    0.00     369    999.0    -0.6
 241    7:20   57.6    32    0.9   140      3.4   709.8    0.00     403    999.0    -0.7
 241    7:30   60.1    29    1.4   223      4.1   709.8    0.00     436    999.0    -0.8
 241    7:40   59.8    29    2.2   226      5.1   709.9    0.00     468    999.0    -0.8
 241    7:50   59.1    30    3.3   227      8.8   709.9    0.00     499    999.0    -0.7
 241    8:00   59.6    29    3.4   125      7.9   710.0    0.00     529    999.0    -0.7
 241    8:10   60.2    29    2.5   126      6.9   710.0    0.00     559    999.0    -0.7
 241    8:20   62.0    27    1.8   116      6.9   710.1    0.00     588    999.0    -0.8
 241    8:30   60.6    28    3.0   130      6.9   710.1    0.00     615    999.0    -0.8
 241    8:40   61.2    28    2.6   116      9.1   710.1    0.00     643    999.0    -0.7
 241    8:50   61.0    28    4.6   129      9.6   710.2    0.00     668    999.0    -0.7
 241    9:00   61.1    28    3.3   119     13.2   710.2    0.00     694    999.0    -0.7
 241    9:10   61.7    27    3.3   119      9.4   710.0    0.00     718    999.0    -0.6
 241    9:20   62.2    27    3.4   117     10.2   710.3    0.00     741    999.0    -0.8
 241    9:30   62.0    27    4.3   130      9.1   710.2    0.00     762    999.0    -0.8
 241    9:40   61.9    26    3.9   111      8.4   710.2    0.00     783    999.0    -0.7
 241    9:50   61.9    27    5.0   139     11.4   710.2    0.00     801    999.0    -0.5
 241   10:00   61.4    27    5.5   138     13.4   710.2    0.00     816    999.0    -0.6
 241   10:10   62.1    26    4.0   181     10.6   710.2    0.00     831    999.0    -0.5
 241   10:20   62.1    26    4.6   134     13.2   710.1    0.00     843    999.0    -0.5
 241   10:30   63.2    26    4.3   138      9.8   710.0    0.00     855    999.0    -0.5
 241   10:40   63.0    26    4.1   155      9.1   709.9    0.00     866    999.0    -0.6
 241   10:50   63.2    25    4.8   164      8.9   710.0    0.00     874    999.0    -0.5
 241   11:00   63.6    26    3.8   199      9.1   709.8    0.00     880    999.0    -0.5
 241   11:10   63.7    25    5.0   247     11.3   709.8    0.00     888    999.0    -0.6
 241   11:20   63.5    25    5.5   257     11.2   709.8    0.00     893    999.0    -0.5
 241   11:30   63.5    25    4.7   225     11.8   709.7    0.00     895    999.0    -0.4
 241   11:40   64.2    24    5.5   252     12.1   709.7    0.00     897    999.0    -0.5
 241   11:50   64.2    24    4.1   241     11.1   709.5    0.00     896    999.0    -0.5
 241   12:00   64.5    23    4.8   258     13.2   709.7    0.00     896    999.0    -0.5
 241   12:10   64.7    22    4.8   235     12.6   709.4    0.00     893    999.0    -0.5
 241   12:20   65.3    21    5.2   285     12.7   709.4    0.00     891    999.0    -0.5
 241   12:30   65.7    18    6.4   262     12.3   709.4    0.00     884    999.0    -0.4
 241   12:40   65.1    17    4.6   234     10.8   709.3    0.00     876    999.0    -0.6
 241   12:50   65.9    15    4.5   246     14.1   709.3    0.00     866    999.0    -0.6
 241   13:00   65.5    17    5.1   234     13.2   709.3    0.00     852    999.0    -0.5
 241   13:10   65.9    18    5.2   218     11.6   709.2    0.00     837    999.0    -0.5
 241   13:20   65.6    19    4.4   237     11.4   709.0    0.00     821    999.0    -0.5
 241   13:30   65.8    20    6.2   231     14.5   708.9    0.00     805    999.0    -0.6
 241   13:40   66.0    20    4.6   211     12.0   708.9    0.00     785    999.0    -0.5
 241   13:50   66.8    20    5.2   236     10.4   708.9    0.00     767    999.0    -0.6
 241   14:00   66.5    20    3.7   219     12.6   708.8    0.00     745    999.0    -0.5
 241   14:10   67.3    20    4.5   233     11.9   708.8    0.00     722    999.0    -0.6
 241   14:20   66.7    21    5.7   237     10.2   708.7    0.00     699    999.0    -0.6
 241   14:30   66.0    22    6.3   236     12.4   708.7    0.00     673    999.0    -0.5
 241   14:40   66.4    22    6.2   248     11.3   708.7    0.00     646    999.0    -0.5
 241   14:50   66.3    22    4.5   210     12.6   708.5    0.00     618    999.0    -0.6
 241   15:00   66.5    22    5.2   235     10.7   708.5    0.00     591    999.0    -0.6
 241   15:10   66.5    22    5.0   236     12.0   708.4    0.00     562    999.0    -0.6
 241   15:20   66.3    22    6.0   239     11.5   708.4    0.00     530    999.0    -0.5
 241   15:30   67.2    22    5.3   243     13.2   708.4    0.00     500    999.0    -0.5
 241   15:40   66.8    22    5.2   234     10.2   708.3    0.00     469    999.0    -0.6
 241   15:50   66.9    22    5.6   251     11.0   708.3    0.00     438    999.0    -0.6
 241   16:00   66.8    22    5.9   241     11.4   708.3    0.00     405    999.0    -0.6
 241   16:10   66.6    22    3.8   237     11.0   708.3    0.00     372    999.0    -0.6
 241   16:20   67.5    22    3.4   240      8.3   708.2    0.00     340    999.0    -0.7
 241   16:30   66.0    23    7.0   254     12.2   708.2    0.00     306    999.0    -0.6
 241   16:40   66.7    22    2.0   245      6.8   708.2    0.00     273    999.0    -0.6
 241   16:50   65.1    23    6.5   136     11.7   708.2    0.00     239    999.0    -0.7
 241   17:00   63.7    24    4.5   146      9.0   708.2    0.00     207    999.0    -0.6
 241   17:10   63.4    24    4.5   149      9.3   708.1    0.00     176    999.0    -0.6
 241   17:20   62.0    25    3.9   148      7.2   708.1    0.00      36    999.0    -0.6
 241   17:30   60.8    26    2.4   163      7.4   708.1    0.00      18    999.0    -0.5
 241   17:40   60.0    26    1.6   161      5.2   708.2    0.00      15    999.0    -0.5
 241   17:50   59.5    27    1.7   163      5.0   708.0    0.00      12    999.0    -0.5
 241   18:00   58.8    28    1.7   204      3.7   708.0    0.00       9    999.0    -0.5
 241   18:10   58.0    29    1.9   202      4.8   708.0    0.00       6    999.0    -0.6
 241   18:20   56.7    30    1.4   197      4.0   708.0    0.00       3    999.0    -0.6
 241   18:30   55.1    32    0.6   154      2.2   707.9    0.00       1    999.0    -0.6
 241   18:40   54.5    32    2.4   217      4.2   707.9    0.00       0    999.0    -0.5
 241   18:50   54.1    32    2.2   209      3.7   707.9    0.00       0    999.0    -0.6
 241   19:00   53.8    33    1.2   166      3.1   707.9    0.00       0    999.0    -0.7
 241   19:10   52.0    36    0.4   145      1.8   707.9    0.00       0    999.0    -0.7
 241   19:20   50.6    37    0.3   193      2.6   707.9    0.00       0    999.0    -0.6
 241   19:30   50.2    38    0.1    64      0.9   708.0    0.00       0    999.0    -0.5
 241   19:40   49.4    38    1.1   204      3.4   708.1    0.00       0    999.0    -0.7
 241   19:50   48.8    39    0.2   128      0.7   708.2    0.00       0    999.0    -0.6
 241   20:00   48.4    39    0.5   229      2.7   708.2    0.00       0    999.0    -0.6
 241   20:10   47.9    40    0.6   289      2.1   708.2    0.00       0    999.0    -0.7
 241   20:20   47.6    41    0.4   286      1.8   708.3    0.00       0    999.0    -0.6
 241   20:30   47.2    41    0.3   311      1.5   708.2    0.00       0    999.0    -0.6
 241   20:40   46.2    42    0.5   124      2.3   708.3    0.00       0    999.0    -0.8
 241   20:50   45.6    43    1.4   128      3.1   708.2    0.00       0    999.0    -0.5
 241   21:00   45.8    43    0.8   125      2.0   708.2    0.00       0    999.0    -0.6
 241   21:10   45.0    44    0.9   236      3.1   708.1    0.00       0    999.0    -0.6
 241   21:20   44.6    44    0.3   228      1.2   708.2    0.00       0    999.0    -0.5
 241   21:30   44.9    44    0.4   163      1.5   708.1    0.00       0    999.0    -0.6
 241   21:40   44.4    45    1.2   227      3.5   708.1    0.00       0    999.0    -0.6
 241   21:50   44.7    44    1.6   153      3.7   708.1    0.00       0    999.0    -0.6
 241   22:00   44.0    46    1.4   238      4.5   708.1    0.00       0    999.0    -0.7
 241   22:10   43.1    47    1.6   232      4.5   707.9    0.00       0    999.0    -0.6
 241   22:20   43.1    47    0.4   230      2.6   708.0    0.00       0    999.0    -0.5
 241   22:30   43.4    47    0.7   234      3.5   708.0    0.00       0    999.0    -0.6
 241   22:40   42.7    48    1.8   214      4.0   708.0    0.00       0    999.0    -0.7
 241   22:50   42.9    48    1.6   228      4.5   708.1    0.00       0    999.0    -0.6
 241   23:00   42.8    48    0.5   225      2.0   708.0    0.00       0    999.0    -0.6
 241   23:10   42.6    49    0.2   223      1.4   708.0    0.00       0    999.0    -0.5
 241   23:20   42.9    49    0.0   223      0.9   708.0    0.00       0    999.0    -0.6
 241   23:30   43.3    48    0.2   223      1.5   707.9    0.00       0    999.0    -0.7
 241   23:40   42.7    49    0.4   124      2.6   707.8    0.00       0    999.0    -0.6
 241   23:50   42.7    49    0.0   148      0.6   707.8    0.00       0    999.0    -0.6

Return to Crooked Creek Research Lab graphs page.


Western Regional Climate Center,wrcc@dri.edu